sensor_id;sensor_type;location;lat;lon;timestamp;P1;durP1;ratioP1;P2;durP2;ratioP2
75342;SDS011;63936;51.006;13.764;2023-03-29T00:00:03;10;;;4;;
75342;SDS011;63936;51.006;13.764;2023-03-29T00:02:04;10;;;4;;
75342;SDS011;63936;51.006;13.764;2023-03-29T00:04:03;14;;;6;;
75342;SDS011;63936;51.006;13.764;2023-03-29T00:06:03;12;;;5;;
75342;SDS011;63936;51.006;13.764;2023-03-29T00:08:03;19;;;5;;
75342;SDS011;63936;51.006;13.764;2023-03-29T00:10:06;12;;;5;;
75342;SDS011;63936;51.006;13.764;2023-03-29T00:12:02;11;;;5;;
75342;SDS011;63936;51.006;13.764;2023-03-29T00:14:02;9;;;4;;
75342;SDS011;63936;51.006;13.764;2023-03-29T00:16:02;9;;;4;;
75342;SDS011;63936;51.006;13.764;2023-03-29T00:18:01;15;;;7;;
75342;SDS011;63936;51.006;13.764;2023-03-29T00:20:04;11;;;6;;
75342;SDS011;63936;51.006;13.764;2023-03-29T00:22:02;11;;;6;;
75342;SDS011;63936;51.006;13.764;2023-03-29T00:24:02;10;;;5;;
75342;SDS011;63936;51.006;13.764;2023-03-29T00:26:05;9;;;5;;
75342;SDS011;63936;51.006;13.764;2023-03-29T00:28:01;8;;;4;;
75342;SDS011;63936;51.006;13.764;2023-03-29T00:30:05;11;;;4;;
75342;SDS011;63936;51.006;13.764;2023-03-29T00:32:03;12;;;4;;
75342;SDS011;63936;51.006;13.764;2023-03-29T00:34:01;11;;;5;;
75342;SDS011;63936;51.006;13.764;2023-03-29T00:36:04;12;;;6;;
75342;SDS011;63936;51.006;13.764;2023-03-29T00:38:04;16;;;4;;
75342;SDS011;63936;51.006;13.764;2023-03-29T00:40:06;11;;;4;;
75342;SDS011;63936;51.006;13.764;2023-03-29T00:42:04;7;;;3;;
75342;SDS011;63936;51.006;13.764;2023-03-29T00:44:05;7;;;3;;
75342;SDS011;63936;51.006;13.764;2023-03-29T00:46:04;6;;;3;;
75342;SDS011;63936;51.006;13.764;2023-03-29T00:48:03;5;;;3;;
75342;SDS011;63936;51.006;13.764;2023-03-29T00:50:12;5;;;3;;
75342;SDS011;63936;51.006;13.764;2023-03-29T00:52:02;12;;;5;;
75342;SDS011;63936;51.006;13.764;2023-03-29T00:54:05;12;;;6;;
75342;SDS011;63936;51.006;13.764;2023-03-29T00:56:04;12;;;6;;
75342;SDS011;63936;51.006;13.764;2023-03-29T00:58:04;12;;;5;;
75342;SDS011;63936;51.006;13.764;2023-03-29T01:00:07;8;;;4;;
75342;SDS011;63936;51.006;13.764;2023-03-29T01:02:02;8;;;4;;
75342;SDS011;63936;51.006;13.764;2023-03-29T01:04:05;7;;;3;;
75342;SDS011;63936;51.006;13.764;2023-03-29T01:06:07;7;;;3;;
75342;SDS011;63936;51.006;13.764;2023-03-29T01:08:03;7;;;3;;
75342;SDS011;63936;51.006;13.764;2023-03-29T01:10:08;7;;;3;;
75342;SDS011;63936;51.006;13.764;2023-03-29T01:12:07;5;;;2;;
75342;SDS011;63936;51.006;13.764;2023-03-29T01:14:02;6;;;2;;
75342;SDS011;63936;51.006;13.764;2023-03-29T01:16:02;8;;;3;;
75342;SDS011;63936;51.006;13.764;2023-03-29T01:18:08;10;;;4;;
75342;SDS011;63936;51.006;13.764;2023-03-29T01:20:11;8;;;3;;
75342;SDS011;63936;51.006;13.764;2023-03-29T01:22:05;7;;;3;;
75342;SDS011;63936;51.006;13.764;2023-03-29T01:24:22;6;;;3;;
75342;SDS011;63936;51.006;13.764;2023-03-29T01:26:04;6;;;2;;
75342;SDS011;63936;51.006;13.764;2023-03-29T01:28:16;6;;;2;;
75342;SDS011;63936;51.006;13.764;2023-03-29T01:30:10;12;;;5;;
75342;SDS011;63936;51.006;13.764;2023-03-29T01:32:03;8;;;3;;
75342;SDS011;63936;51.006;13.764;2023-03-29T01:34:04;6;;;3;;
75342;SDS011;63936;51.006;13.764;2023-03-29T01:36:02;6;;;3;;
75342;SDS011;63936;51.006;13.764;2023-03-29T01:38:02;11;;;4;;
75342;SDS011;63936;51.006;13.764;2023-03-29T01:40:02;11;;;4;;
75342;SDS011;63936;51.006;13.764;2023-03-29T01:42:07;6;;;3;;
75342;SDS011;63936;51.006;13.764;2023-03-29T01:44:10;9;;;3;;
75342;SDS011;63936;51.006;13.764;2023-03-29T01:46:02;9;;;3;;
75342;SDS011;63936;51.006;13.764;2023-03-29T01:48:03;8;;;4;;
75342;SDS011;63936;51.006;13.764;2023-03-29T01:50:07;9;;;4;;
75342;SDS011;63936;51.006;13.764;2023-03-29T01:52:02;5;;;2;;
75342;SDS011;63936;51.006;13.764;2023-03-29T01:54:02;5;;;3;;
75342;SDS011;63936;51.006;13.764;2023-03-29T01:56:02;5;;;2;;
75342;SDS011;63936;51.006;13.764;2023-03-29T01:58:01;5;;;2;;
75342;SDS011;63936;51.006;13.764;2023-03-29T02:00:01;9;;;3;;
75342;SDS011;63936;51.006;13.764;2023-03-29T02:03:49;7;;;3;;
75342;SDS011;63936;51.006;13.764;2023-03-29T02:04:01;7;;;3;;
75342;SDS011;63936;51.006;13.764;2023-03-29T02:06:01;10;;;4;;
75342;SDS011;63936;51.006;13.764;2023-03-29T02:08:01;11;;;5;;
75342;SDS011;63936;51.006;13.764;2023-03-29T02:10:03;9;;;3;;
75342;SDS011;63936;51.006;13.764;2023-03-29T02:12:02;6;;;3;;
75342;SDS011;63936;51.006;13.764;2023-03-29T02:14:02;6;;;3;;
75342;SDS011;63936;51.006;13.764;2023-03-29T02:16:06;6;;;3;;
75342;SDS011;63936;51.006;13.764;2023-03-29T02:18:01;6;;;3;;
75342;SDS011;63936;51.006;13.764;2023-03-29T02:20:03;6;;;3;;
75342;SDS011;63936;51.006;13.764;2023-03-29T02:22:02;6;;;3;;
75342;SDS011;63936;51.006;13.764;2023-03-29T02:24:18;6;;;3;;
75342;SDS011;63936;51.006;13.764;2023-03-29T02:26:01;6;;;3;;
75342;SDS011;63936;51.006;13.764;2023-03-29T02:28:05;8;;;4;;
75342;SDS011;63936;51.006;13.764;2023-03-29T02:30:02;7;;;3;;
75342;SDS011;63936;51.006;13.764;2023-03-29T02:32:03;7;;;3;;
75342;SDS011;63936;51.006;13.764;2023-03-29T02:34:03;7;;;3;;
75342;SDS011;63936;51.006;13.764;2023-03-29T02:36:02;7;;;3;;
75342;SDS011;63936;51.006;13.764;2023-03-29T02:38:02;7;;;3;;
75342;SDS011;63936;51.006;13.764;2023-03-29T02:40:01;7;;;3;;
75342;SDS011;63936;51.006;13.764;2023-03-29T02:42:06;7;;;3;;
75342;SDS011;63936;51.006;13.764;2023-03-29T02:44:01;7;;;3;;
75342;SDS011;63936;51.006;13.764;2023-03-29T02:48:16;7;;;3;;
75342;SDS011;63936;51.006;13.764;2023-03-29T02:50:01;7;;;3;;
75342;SDS011;63936;51.006;13.764;2023-03-29T04:54:01;10;;;4;;
75342;SDS011;63936;51.006;13.764;2023-03-29T04:56:01;7;;;4;;
75342;SDS011;63936;51.006;13.764;2023-03-29T04:58:01;8;;;4;;
75342;SDS011;63936;51.006;13.764;2023-03-29T05:00:06;8;;;4;;
75342;SDS011;63936;51.006;13.764;2023-03-29T05:02:04;16;;;9;;
75342;SDS011;63936;51.006;13.764;2023-03-29T05:04:01;11;;;7;;
75342;SDS011;63936;51.006;13.764;2023-03-29T05:06:02;11;;;7;;
75342;SDS011;63936;51.006;13.764;2023-03-29T05:08:02;10;;;3;;
75342;SDS011;63936;51.006;13.764;2023-03-29T05:10:03;13;;;4;;
75342;SDS011;63936;51.006;13.764;2023-03-29T05:12:02;8;;;4;;
75342;SDS011;63936;51.006;13.764;2023-03-29T05:14:01;8;;;4;;
75342;SDS011;63936;51.006;13.764;2023-03-29T05:16:01;8;;;4;;
75342;SDS011;63936;51.006;13.764;2023-03-29T05:18:01;13;;;6;;
75342;SDS011;63936;51.006;13.764;2023-03-29T05:20:03;14;;;6;;
75342;SDS011;63936;51.006;13.764;2023-03-29T05:22:01;11;;;5;;
75342;SDS011;63936;51.006;13.764;2023-03-29T05:24:01;11;;;5;;
75342;SDS011;63936;51.006;13.764;2023-03-29T05:26:01;11;;;5;;
75342;SDS011;63936;51.006;13.764;2023-03-29T05:28:01;9;;;4;;
75342;SDS011;63936;51.006;13.764;2023-03-29T05:30:05;9;;;4;;
75342;SDS011;63936;51.006;13.764;2023-03-29T05:32:02;12;;;5;;
75342;SDS011;63936;51.006;13.764;2023-03-29T05:34:05;9;;;4;;
75342;SDS011;63936;51.006;13.764;2023-03-29T05:36:02;9;;;4;;
75342;SDS011;63936;51.006;13.764;2023-03-29T05:38:02;6;;;3;;
75342;SDS011;63936;51.006;13.764;2023-03-29T05:40:08;8;;;4;;
75342;SDS011;63936;51.006;13.764;2023-03-29T05:42:02;5;;;2;;
75342;SDS011;63936;51.006;13.764;2023-03-29T05:44:01;5;;;2;;
75342;SDS011;63936;51.006;13.764;2023-03-29T05:46:02;5;;;2;;
75342;SDS011;63936;51.006;13.764;2023-03-29T05:48:02;17;;;11;;
75342;SDS011;63936;51.006;13.764;2023-03-29T05:50:06;13;;;7;;
75342;SDS011;63936;51.006;13.764;2023-03-29T05:52:01;10;;;5;;
75342;SDS011;63936;51.006;13.764;2023-03-29T05:54:01;12;;;5;;
75342;SDS011;63936;51.006;13.764;2023-03-29T05:56:02;11;;;4;;
75342;SDS011;63936;51.006;13.764;2023-03-29T05:58:02;10;;;4;;
75342;SDS011;63936;51.006;13.764;2023-03-29T06:00:05;10;;;4;;
75342;SDS011;63936;51.006;13.764;2023-03-29T06:02:01;10;;;4;;
75342;SDS011;63936;51.006;13.764;2023-03-29T06:04:02;12;;;4;;
75342;SDS011;63936;51.006;13.764;2023-03-29T06:06:03;9;;;4;;
75342;SDS011;63936;51.006;13.764;2023-03-29T06:08:02;9;;;4;;
75342;SDS011;63936;51.006;13.764;2023-03-29T06:10:03;8;;;4;;
75342;SDS011;63936;51.006;13.764;2023-03-29T06:12:01;9;;;3;;
75342;SDS011;63936;51.006;13.764;2023-03-29T06:14:01;9;;;3;;
75342;SDS011;63936;51.006;13.764;2023-03-29T06:16:02;9;;;3;;
75342;SDS011;63936;51.006;13.764;2023-03-29T06:18:02;13;;;6;;
75342;SDS011;63936;51.006;13.764;2023-03-29T06:20:03;13;;;6;;
75342;SDS011;63936;51.006;13.764;2023-03-29T06:22:01;10;;;5;;
75342;SDS011;63936;51.006;13.764;2023-03-29T06:24:02;9;;;5;;
75342;SDS011;63936;51.006;13.764;2023-03-29T06:26:01;9;;;5;;
75342;SDS011;63936;51.006;13.764;2023-03-29T06:28:01;8;;;4;;
75342;SDS011;63936;51.006;13.764;2023-03-29T06:30:03;10;;;4;;
75342;SDS011;63936;51.006;13.764;2023-03-29T06:32:01;10;;;4;;
75342;SDS011;63936;51.006;13.764;2023-03-29T06:34:01;9;;;4;;
75342;SDS011;63936;51.006;13.764;2023-03-29T06:36:02;9;;;4;;
75342;SDS011;63936;51.006;13.764;2023-03-29T06:38:02;10;;;4;;
75342;SDS011;63936;51.006;13.764;2023-03-29T06:40:03;10;;;4;;
75342;SDS011;63936;51.006;13.764;2023-03-29T06:42:01;10;;;4;;
75342;SDS011;63936;51.006;13.764;2023-03-29T06:44:01;12;;;4;;
75342;SDS011;63936;51.006;13.764;2023-03-29T06:46:02;12;;;4;;
75342;SDS011;63936;51.006;13.764;2023-03-29T06:48:02;11;;;4;;
75342;SDS011;63936;51.006;13.764;2023-03-29T06:50:04;10;;;4;;
75342;SDS011;63936;51.006;13.764;2023-03-29T06:52:01;9;;;4;;
75342;SDS011;63936;51.006;13.764;2023-03-29T06:54:02;9;;;4;;
75342;SDS011;63936;51.006;13.764;2023-03-29T06:56:02;10;;;4;;
75342;SDS011;63936;51.006;13.764;2023-03-29T06:58:02;10;;;4;;
75342;SDS011;63936;51.006;13.764;2023-03-29T07:00:03;12;;;6;;
75342;SDS011;63936;51.006;13.764;2023-03-29T07:02:01;16;;;7;;
75342;SDS011;63936;51.006;13.764;2023-03-29T07:04:01;13;;;6;;
75342;SDS011;63936;51.006;13.764;2023-03-29T07:06:02;10;;;5;;
75342;SDS011;63936;51.006;13.764;2023-03-29T07:08:01;9;;;5;;
75342;SDS011;63936;51.006;13.764;2023-03-29T07:10:02;9;;;4;;
75342;SDS011;63936;51.006;13.764;2023-03-29T07:12:01;11;;;4;;
75342;SDS011;63936;51.006;13.764;2023-03-29T07:14:01;7;;;4;;
75342;SDS011;63936;51.006;13.764;2023-03-29T07:16:01;9;;;3;;
75342;SDS011;63936;51.006;13.764;2023-03-29T07:18:01;9;;;4;;
75342;SDS011;63936;51.006;13.764;2023-03-29T07:20:02;8;;;4;;
75342;SDS011;63936;51.006;13.764;2023-03-29T07:22:01;14;;;6;;
75342;SDS011;63936;51.006;13.764;2023-03-29T07:24:01;14;;;6;;
75342;SDS011;63936;51.006;13.764;2023-03-29T07:26:01;12;;;4;;
75342;SDS011;63936;51.006;13.764;2023-03-29T07:28:01;12;;;4;;
75342;SDS011;63936;51.006;13.764;2023-03-29T07:30:03;11;;;3;;
75342;SDS011;63936;51.006;13.764;2023-03-29T07:32:01;9;;;3;;
75342;SDS011;63936;51.006;13.764;2023-03-29T07:34:01;9;;;4;;
75342;SDS011;63936;51.006;13.764;2023-03-29T07:36:01;13;;;5;;
75342;SDS011;63936;51.006;13.764;2023-03-29T07:38:01;10;;;4;;
75342;SDS011;63936;51.006;13.764;2023-03-29T07:40:02;8;;;4;;
75342;SDS011;63936;51.006;13.764;2023-03-29T07:42:01;8;;;4;;
75342;SDS011;63936;51.006;13.764;2023-03-29T07:44:01;8;;;4;;
75342;SDS011;63936;51.006;13.764;2023-03-29T07:46:02;10;;;4;;
75342;SDS011;63936;51.006;13.764;2023-03-29T07:48:02;11;;;4;;
75342;SDS011;63936;51.006;13.764;2023-03-29T07:50:02;9;;;4;;
75342;SDS011;63936;51.006;13.764;2023-03-29T07:52:02;8;;;4;;
75342;SDS011;63936;51.006;13.764;2023-03-29T07:54:02;8;;;4;;
75342;SDS011;63936;51.006;13.764;2023-03-29T07:56:01;9;;;4;;
75342;SDS011;63936;51.006;13.764;2023-03-29T07:58:01;9;;;4;;
75342;SDS011;63936;51.006;13.764;2023-03-29T08:00:02;9;;;4;;
75342;SDS011;63936;51.006;13.764;2023-03-29T08:02:01;9;;;3;;
75342;SDS011;63936;51.006;13.764;2023-03-29T08:04:01;12;;;3;;
75342;SDS011;63936;51.006;13.764;2023-03-29T08:06:01;8;;;3;;
75342;SDS011;63936;51.006;13.764;2023-03-29T08:08:01;6;;;3;;
75342;SDS011;63936;51.006;13.764;2023-03-29T08:10:02;6;;;3;;
75342;SDS011;63936;51.006;13.764;2023-03-29T08:12:01;9;;;4;;
75342;SDS011;63936;51.006;13.764;2023-03-29T08:14:01;10;;;3;;
75342;SDS011;63936;51.006;13.764;2023-03-29T08:16:02;9;;;3;;
75342;SDS011;63936;51.006;13.764;2023-03-29T08:18:02;10;;;3;;
75342;SDS011;63936;51.006;13.764;2023-03-29T08:20:02;9;;;3;;
75342;SDS011;63936;51.006;13.764;2023-03-29T08:22:01;6;;;3;;
75342;SDS011;63936;51.006;13.764;2023-03-29T08:24:01;9;;;3;;
75342;SDS011;63936;51.006;13.764;2023-03-29T08:26:01;7;;;3;;
75342;SDS011;63936;51.006;13.764;2023-03-29T08:28:01;9;;;3;;
75342;SDS011;63936;51.006;13.764;2023-03-29T08:30:03;9;;;3;;
75342;SDS011;63936;51.006;13.764;2023-03-29T08:32:01;9;;;3;;
75342;SDS011;63936;51.006;13.764;2023-03-29T08:34:01;8;;;3;;
75342;SDS011;63936;51.006;13.764;2023-03-29T08:36:02;8;;;3;;
75342;SDS011;63936;51.006;13.764;2023-03-29T08:38:01;6;;;3;;
75342;SDS011;63936;51.006;13.764;2023-03-29T08:40:02;7;;;3;;
75342;SDS011;63936;51.006;13.764;2023-03-29T08:42:06;10;;;4;;
75342;SDS011;63936;51.006;13.764;2023-03-29T08:44:05;10;;;4;;
75342;SDS011;63936;51.006;13.764;2023-03-29T08:46:04;9;;;4;;
75342;SDS011;63936;51.006;13.764;2023-03-29T08:48:03;11;;;4;;
75342;SDS011;63936;51.006;13.764;2023-03-29T08:50:02;11;;;4;;
75342;SDS011;63936;51.006;13.764;2023-03-29T08:52:01;10;;;5;;
75342;SDS011;63936;51.006;13.764;2023-03-29T08:54:02;9;;;4;;
75342;SDS011;63936;51.006;13.764;2023-03-29T08:56:01;9;;;4;;
75342;SDS011;63936;51.006;13.764;2023-03-29T08:58:01;9;;;4;;
75342;SDS011;63936;51.006;13.764;2023-03-29T09:00:03;9;;;4;;
75342;SDS011;63936;51.006;13.764;2023-03-29T09:02:01;8;;;3;;
75342;SDS011;63936;51.006;13.764;2023-03-29T09:04:02;8;;;4;;
75342;SDS011;63936;51.006;13.764;2023-03-29T09:06:02;11;;;4;;
75342;SDS011;63936;51.006;13.764;2023-03-29T09:08:01;9;;;4;;
75342;SDS011;63936;51.006;13.764;2023-03-29T09:10:02;6;;;3;;
75342;SDS011;63936;51.006;13.764;2023-03-29T09:12:04;7;;;3;;
75342;SDS011;63936;51.006;13.764;2023-03-29T09:14:05;7;;;4;;
75342;SDS011;63936;51.006;13.764;2023-03-29T09:16:02;7;;;4;;
75342;SDS011;63936;51.006;13.764;2023-03-29T09:18:03;9;;;4;;
75342;SDS011;63936;51.006;13.764;2023-03-29T09:20:03;10;;;5;;
75342;SDS011;63936;51.006;13.764;2023-03-29T09:22:03;15;;;8;;
75342;SDS011;63936;51.006;13.764;2023-03-29T09:24:08;13;;;7;;
75342;SDS011;63936;51.006;13.764;2023-03-29T09:26:03;10;;;4;;
75342;SDS011;63936;51.006;13.764;2023-03-29T09:28:03;9;;;4;;
75342;SDS011;63936;51.006;13.764;2023-03-29T09:30:03;10;;;4;;
75342;SDS011;63936;51.006;13.764;2023-03-29T09:32:01;10;;;4;;
75342;SDS011;63936;51.006;13.764;2023-03-29T09:34:02;9;;;4;;
75342;SDS011;63936;51.006;13.764;2023-03-29T09:36:02;9;;;4;;
75342;SDS011;63936;51.006;13.764;2023-03-29T09:38:01;7;;;4;;
75342;SDS011;63936;51.006;13.764;2023-03-29T09:40:05;7;;;3;;
75342;SDS011;63936;51.006;13.764;2023-03-29T09:42:01;9;;;3;;
75342;SDS011;63936;51.006;13.764;2023-03-29T09:44:01;8;;;4;;
75342;SDS011;63936;51.006;13.764;2023-03-29T09:46:02;8;;;4;;
75342;SDS011;63936;51.006;13.764;2023-03-29T09:48:02;7;;;3;;
75342;SDS011;63936;51.006;13.764;2023-03-29T09:50:03;9;;;4;;
75342;SDS011;63936;51.006;13.764;2023-03-29T09:52:03;8;;;4;;
75342;SDS011;63936;51.006;13.764;2023-03-29T09:54:01;6;;;3;;
75342;SDS011;63936;51.006;13.764;2023-03-29T09:56:02;7;;;3;;
75342;SDS011;63936;51.006;13.764;2023-03-29T09:58:06;7;;;3;;
75342;SDS011;63936;51.006;13.764;2023-03-29T10:00:03;6;;;3;;
75342;SDS011;63936;51.006;13.764;2023-03-29T10:02:05;10;;;4;;
75342;SDS011;63936;51.006;13.764;2023-03-29T10:04:04;8;;;4;;
75342;SDS011;63936;51.006;13.764;2023-03-29T10:06:02;9;;;3;;
75342;SDS011;63936;51.006;13.764;2023-03-29T10:08:01;8;;;4;;
75342;SDS011;63936;51.006;13.764;2023-03-29T10:10:05;12;;;3;;
75342;SDS011;63936;51.006;13.764;2023-03-29T10:12:04;7;;;4;;
75342;SDS011;63936;51.006;13.764;2023-03-29T10:14:02;8;;;4;;
75342;SDS011;63936;51.006;13.764;2023-03-29T10:16:02;10;;;4;;
75342;SDS011;63936;51.006;13.764;2023-03-29T10:18:02;8;;;4;;
75342;SDS011;63936;51.006;13.764;2023-03-29T10:20:02;7;;;4;;
75342;SDS011;63936;51.006;13.764;2023-03-29T10:22:03;8;;;3;;
75342;SDS011;63936;51.006;13.764;2023-03-29T10:24:02;8;;;4;;
75342;SDS011;63936;51.006;13.764;2023-03-29T10:26:02;8;;;4;;
75342;SDS011;63936;51.006;13.764;2023-03-29T10:28:02;6;;;3;;
75342;SDS011;63936;51.006;13.764;2023-03-29T10:30:07;6;;;3;;
75342;SDS011;63936;51.006;13.764;2023-03-29T10:32:01;6;;;3;;
75342;SDS011;63936;51.006;13.764;2023-03-29T10:34:01;8;;;3;;
75342;SDS011;63936;51.006;13.764;2023-03-29T10:36:02;8;;;3;;
75342;SDS011;63936;51.006;13.764;2023-03-29T10:38:02;6;;;3;;
75342;SDS011;63936;51.006;13.764;2023-03-29T10:40:02;8;;;4;;
75342;SDS011;63936;51.006;13.764;2023-03-29T10:42:01;6;;;3;;
75342;SDS011;63936;51.006;13.764;2023-03-29T10:44:01;7;;;4;;
75342;SDS011;63936;51.006;13.764;2023-03-29T10:46:04;7;;;4;;
75342;SDS011;63936;51.006;13.764;2023-03-29T10:48:02;6;;;3;;
75342;SDS011;63936;51.006;13.764;2023-03-29T10:50:03;5;;;3;;
75342;SDS011;63936;51.006;13.764;2023-03-29T10:52:01;6;;;3;;
75342;SDS011;63936;51.006;13.764;2023-03-29T10:54:01;8;;;3;;
75342;SDS011;63936;51.006;13.764;2023-03-29T10:56:06;6;;;4;;
75342;SDS011;63936;51.006;13.764;2023-03-29T10:58:03;7;;;4;;
75342;SDS011;63936;51.006;13.764;2023-03-29T11:00:04;7;;;3;;
75342;SDS011;63936;51.006;13.764;2023-03-29T11:02:10;7;;;3;;
75342;SDS011;63936;51.006;13.764;2023-03-29T11:04:06;6;;;3;;
75342;SDS011;63936;51.006;13.764;2023-03-29T11:06:02;6;;;3;;
75342;SDS011;63936;51.006;13.764;2023-03-29T11:08:05;10;;;4;;
75342;SDS011;63936;51.006;13.764;2023-03-29T11:10:05;8;;;4;;
75342;SDS011;63936;51.006;13.764;2023-03-29T11:12:03;7;;;3;;
75342;SDS011;63936;51.006;13.764;2023-03-29T11:14:02;7;;;3;;
75342;SDS011;63936;51.006;13.764;2023-03-29T11:16:04;6;;;3;;
75342;SDS011;63936;51.006;13.764;2023-03-29T11:18:04;6;;;3;;
75342;SDS011;63936;51.006;13.764;2023-03-29T11:20:04;6;;;3;;
75342;SDS011;63936;51.006;13.764;2023-03-29T11:22:02;6;;;3;;
75342;SDS011;63936;51.006;13.764;2023-03-29T11:24:06;6;;;3;;
75342;SDS011;63936;51.006;13.764;2023-03-29T11:26:03;6;;;3;;
75342;SDS011;63936;51.006;13.764;2023-03-29T11:28:03;7;;;3;;
75342;SDS011;63936;51.006;13.764;2023-03-29T11:30:04;6;;;3;;
75342;SDS011;63936;51.006;13.764;2023-03-29T11:32:03;7;;;3;;
75342;SDS011;63936;51.006;13.764;2023-03-29T11:34:05;7;;;3;;
75342;SDS011;63936;51.006;13.764;2023-03-29T11:36:03;6;;;3;;
75342;SDS011;63936;51.006;13.764;2023-03-29T11:38:03;6;;;3;;
75342;SDS011;63936;51.006;13.764;2023-03-29T11:40:04;7;;;5;;
75342;SDS011;63936;51.006;13.764;2023-03-29T11:42:02;7;;;4;;
75342;SDS011;63936;51.006;13.764;2023-03-29T11:44:02;8;;;5;;
75342;SDS011;63936;51.006;13.764;2023-03-29T11:46:03;9;;;5;;
75342;SDS011;63936;51.006;13.764;2023-03-29T11:48:01;10;;;6;;
75342;SDS011;63936;51.006;13.764;2023-03-29T11:50:03;10;;;6;;
75342;SDS011;63936;51.006;13.764;2023-03-29T11:52:02;10;;;6;;
75342;SDS011;63936;51.006;13.764;2023-03-29T11:54:02;10;;;6;;
75342;SDS011;63936;51.006;13.764;2023-03-29T11:56:04;9;;;6;;
75342;SDS011;63936;51.006;13.764;2023-03-29T11:58:02;9;;;6;;
75342;SDS011;63936;51.006;13.764;2023-03-29T12:00:03;9;;;5;;
75342;SDS011;63936;51.006;13.764;2023-03-29T12:02:03;9;;;5;;
75342;SDS011;63936;51.006;13.764;2023-03-29T12:04:02;10;;;6;;
75342;SDS011;63936;51.006;13.764;2023-03-29T12:06:03;9;;;6;;
75342;SDS011;63936;51.006;13.764;2023-03-29T12:08:02;10;;;7;;
75342;SDS011;63936;51.006;13.764;2023-03-29T12:10:05;11;;;7;;
75342;SDS011;63936;51.006;13.764;2023-03-29T12:12:02;10;;;7;;
75342;SDS011;63936;51.006;13.764;2023-03-29T12:14:02;10;;;7;;
75342;SDS011;63936;51.006;13.764;2023-03-29T12:16:04;11;;;7;;
75342;SDS011;63936;51.006;13.764;2023-03-29T12:18:04;10;;;7;;
75342;SDS011;63936;51.006;13.764;2023-03-29T12:20:05;10;;;7;;
75342;SDS011;63936;51.006;13.764;2023-03-29T12:22:01;10;;;7;;
75342;SDS011;63936;51.006;13.764;2023-03-29T12:24:02;10;;;6;;
75342;SDS011;63936;51.006;13.764;2023-03-29T12:26:02;9;;;6;;
75342;SDS011;63936;51.006;13.764;2023-03-29T12:28:06;9;;;7;;
75342;SDS011;63936;51.006;13.764;2023-03-29T12:30:07;9;;;6;;
75342;SDS011;63936;51.006;13.764;2023-03-29T12:32:04;10;;;7;;
75342;SDS011;63936;51.006;13.764;2023-03-29T12:34:07;10;;;7;;
75342;SDS011;63936;51.006;13.764;2023-03-29T12:36:05;10;;;7;;
75342;SDS011;63936;51.006;13.764;2023-03-29T12:38:04;10;;;7;;
75342;SDS011;63936;51.006;13.764;2023-03-29T12:40:04;11;;;8;;
75342;SDS011;63936;51.006;13.764;2023-03-29T12:42:04;10;;;8;;
75342;SDS011;63936;51.006;13.764;2023-03-29T12:44:01;11;;;8;;
75342;SDS011;63936;51.006;13.764;2023-03-29T12:46:04;11;;;8;;
75342;SDS011;63936;51.006;13.764;2023-03-29T12:48:02;11;;;8;;
75342;SDS011;63936;51.006;13.764;2023-03-29T12:50:03;11;;;8;;
75342;SDS011;63936;51.006;13.764;2023-03-29T12:52:02;11;;;9;;
75342;SDS011;63936;51.006;13.764;2023-03-29T12:54:02;12;;;9;;
75342;SDS011;63936;51.006;13.764;2023-03-29T12:56:10;13;;;9;;
75342;SDS011;63936;51.006;13.764;2023-03-29T12:58:03;13;;;10;;
75342;SDS011;63936;51.006;13.764;2023-03-29T13:00:08;13;;;9;;
75342;SDS011;63936;51.006;13.764;2023-03-29T13:02:17;14;;;10;;
75342;SDS011;63936;51.006;13.764;2023-03-29T13:04:17;13;;;9;;
75342;SDS011;63936;51.006;13.764;2023-03-29T13:06:02;13;;;9;;
75342;SDS011;63936;51.006;13.764;2023-03-29T13:08:18;13;;;10;;
75342;SDS011;63936;51.006;13.764;2023-03-29T13:10:05;15;;;10;;
75342;SDS011;63936;51.006;13.764;2023-03-29T13:12:03;14;;;10;;
75342;SDS011;63936;51.006;13.764;2023-03-29T13:14:02;14;;;9;;
75342;SDS011;63936;51.006;13.764;2023-03-29T13:16:17;30;;;12;;
75342;SDS011;63936;51.006;13.764;2023-03-29T13:18:03;20;;;12;;
75342;SDS011;63936;51.006;13.764;2023-03-29T13:20:37;14;;;10;;
75342;SDS011;63936;51.006;13.764;2023-03-29T13:22:05;14;;;10;;
75342;SDS011;63936;51.006;13.764;2023-03-29T13:24:03;13;;;8;;
75342;SDS011;63936;51.006;13.764;2023-03-29T13:26:07;13;;;9;;
75342;SDS011;63936;51.006;13.764;2023-03-29T13:28:02;13;;;9;;
75342;SDS011;63936;51.006;13.764;2023-03-29T13:30:06;14;;;10;;
75342;SDS011;63936;51.006;13.764;2023-03-29T13:32:03;16;;;11;;
75342;SDS011;63936;51.006;13.764;2023-03-29T13:34:02;15;;;11;;
75342;SDS011;63936;51.006;13.764;2023-03-29T13:36:02;13;;;10;;
75342;SDS011;63936;51.006;13.764;2023-03-29T13:38:03;13;;;10;;
75342;SDS011;63936;51.006;13.764;2023-03-29T13:40:22;14;;;10;;
75342;SDS011;63936;51.006;13.764;2023-03-29T13:42:06;14;;;10;;
75342;SDS011;63936;51.006;13.764;2023-03-29T13:44:01;14;;;10;;
75342;SDS011;63936;51.006;13.764;2023-03-29T13:46:04;15;;;11;;
75342;SDS011;63936;51.006;13.764;2023-03-29T13:48:02;15;;;11;;
75342;SDS011;63936;51.006;13.764;2023-03-29T13:50:03;16;;;11;;
75342;SDS011;63936;51.006;13.764;2023-03-29T13:52:04;15;;;12;;
75342;SDS011;63936;51.006;13.764;2023-03-29T13:54:02;14;;;10;;
75342;SDS011;63936;51.006;13.764;2023-03-29T13:56:01;14;;;10;;
75342;SDS011;63936;51.006;13.764;2023-03-29T13:58:03;15;;;10;;
75342;SDS011;63936;51.006;13.764;2023-03-29T14:00:04;14;;;11;;
75342;SDS011;63936;51.006;13.764;2023-03-29T14:02:01;14;;;11;;
75342;SDS011;63936;51.006;13.764;2023-03-29T14:04:01;14;;;11;;
75342;SDS011;63936;51.006;13.764;2023-03-29T14:06:02;14;;;10;;
75342;SDS011;63936;51.006;13.764;2023-03-29T14:08:03;13;;;9;;
75342;SDS011;63936;51.006;13.764;2023-03-29T14:10:03;14;;;9;;
75342;SDS011;63936;51.006;13.764;2023-03-29T14:12:01;11;;;8;;
75342;SDS011;63936;51.006;13.764;2023-03-29T14:14:02;12;;;9;;
75342;SDS011;63936;51.006;13.764;2023-03-29T14:16:02;15;;;11;;
75342;SDS011;63936;51.006;13.764;2023-03-29T14:18:01;16;;;12;;
75342;SDS011;63936;51.006;13.764;2023-03-29T14:20:02;14;;;11;;
75342;SDS011;63936;51.006;13.764;2023-03-29T14:22:05;14;;;10;;
75342;SDS011;63936;51.006;13.764;2023-03-29T14:24:02;12;;;9;;
75342;SDS011;63936;51.006;13.764;2023-03-29T14:26:04;12;;;8;;
75342;SDS011;63936;51.006;13.764;2023-03-29T14:28:10;11;;;7;;
75342;SDS011;63936;51.006;13.764;2023-03-29T14:30:15;11;;;7;;
75342;SDS011;63936;51.006;13.764;2023-03-29T14:32:08;10;;;7;;
75342;SDS011;63936;51.006;13.764;2023-03-29T14:34:02;9;;;6;;
75342;SDS011;63936;51.006;13.764;2023-03-29T14:36:02;9;;;7;;
75342;SDS011;63936;51.006;13.764;2023-03-29T14:38:02;10;;;7;;
75342;SDS011;63936;51.006;13.764;2023-03-29T14:40:02;10;;;6;;
75342;SDS011;63936;51.006;13.764;2023-03-29T14:42:01;13;;;6;;
75342;SDS011;63936;51.006;13.764;2023-03-29T14:44:01;13;;;6;;
75342;SDS011;63936;51.006;13.764;2023-03-29T14:46:02;9;;;6;;
75342;SDS011;63936;51.006;13.764;2023-03-29T14:48:01;8;;;5;;
75342;SDS011;63936;51.006;13.764;2023-03-29T14:50:02;8;;;5;;
75342;SDS011;63936;51.006;13.764;2023-03-29T14:52:01;8;;;4;;
75342;SDS011;63936;51.006;13.764;2023-03-29T14:54:02;7;;;5;;
75342;SDS011;63936;51.006;13.764;2023-03-29T14:56:01;7;;;4;;
75342;SDS011;63936;51.006;13.764;2023-03-29T14:58:01;9;;;4;;